sensor_id;sensor_type;location;lat;lon;timestamp;P1;durP1;ratioP1;P2;durP2;ratioP2
49101;SDS011;34913;47.520;19.186;2023-04-15T00:00:13;6.05;;;4.90;;
49101;SDS011;34913;47.520;19.186;2023-04-15T00:02:40;5.57;;;4.70;;
49101;SDS011;34913;47.520;19.186;2023-04-15T00:05:06;6.47;;;4.57;;
49101;SDS011;34913;47.520;19.186;2023-04-15T00:07:31;7.10;;;4.60;;
49101;SDS011;34913;47.520;19.186;2023-04-15T00:09:57;5.38;;;4.50;;
49101;SDS011;34913;47.520;19.186;2023-04-15T00:12:23;6.25;;;4.15;;
49101;SDS011;34913;47.520;19.186;2023-04-15T00:14:52;7.18;;;4.53;;
49101;SDS011;34913;47.520;19.186;2023-04-15T00:17:17;6.38;;;4.65;;
49101;SDS011;34913;47.520;19.186;2023-04-15T00:19:43;4.90;;;4.28;;
49101;SDS011;34913;47.520;19.186;2023-04-15T00:22:11;5.28;;;4.22;;
49101;SDS011;34913;47.520;19.186;2023-04-15T00:24:38;5.32;;;4.20;;
49101;SDS011;34913;47.520;19.186;2023-04-15T00:27:03;5.35;;;4.53;;
49101;SDS011;34913;47.520;19.186;2023-04-15T00:29:29;4.82;;;4.20;;
49101;SDS011;34913;47.520;19.186;2023-04-15T00:31:55;8.13;;;4.35;;
49101;SDS011;34913;47.520;19.186;2023-04-15T00:34:24;6.60;;;5.15;;
49101;SDS011;34913;47.520;19.186;2023-04-15T00:36:49;8.65;;;5.35;;
49101;SDS011;34913;47.520;19.186;2023-04-15T00:39:16;7.75;;;5.55;;
49101;SDS011;34913;47.520;19.186;2023-04-15T00:41:42;8.48;;;6.00;;
49101;SDS011;34913;47.520;19.186;2023-04-15T00:44:08;8.85;;;6.72;;
49101;SDS011;34913;47.520;19.186;2023-04-15T00:46:34;8.73;;;6.28;;
49101;SDS011;34913;47.520;19.186;2023-04-15T00:49:02;8.43;;;6.78;;
49101;SDS011;34913;47.520;19.186;2023-04-15T00:51:28;8.82;;;6.13;;
49101;SDS011;34913;47.520;19.186;2023-04-15T00:53:55;8.35;;;6.20;;
49101;SDS011;34913;47.520;19.186;2023-04-15T00:56:21;8.10;;;6.32;;
49101;SDS011;34913;47.520;19.186;2023-04-15T00:58:48;10.57;;;6.78;;
49101;SDS011;34913;47.520;19.186;2023-04-15T01:01:15;9.02;;;6.68;;
49101;SDS011;34913;47.520;19.186;2023-04-15T01:03:45;9.75;;;7.45;;
49101;SDS011;34913;47.520;19.186;2023-04-15T01:06:11;11.15;;;7.88;;
49101;SDS011;34913;47.520;19.186;2023-04-15T01:08:38;10.15;;;7.88;;
49101;SDS011;34913;47.520;19.186;2023-04-15T01:11:03;10.77;;;7.88;;
49101;SDS011;34913;47.520;19.186;2023-04-15T01:13:29;11.30;;;8.15;;
49101;SDS011;34913;47.520;19.186;2023-04-15T01:15:57;12.27;;;8.13;;
49101;SDS011;34913;47.520;19.186;2023-04-15T01:18:23;13.60;;;9.38;;
49101;SDS011;34913;47.520;19.186;2023-04-15T01:20:48;15.55;;;9.95;;
49101;SDS011;34913;47.520;19.186;2023-04-15T01:23:14;14.30;;;10.00;;
49101;SDS011;34913;47.520;19.186;2023-04-15T01:25:41;14.75;;;9.55;;
49101;SDS011;34913;47.520;19.186;2023-04-15T01:28:08;13.35;;;9.63;;
49101;SDS011;34913;47.520;19.186;2023-04-15T01:30:34;12.00;;;9.20;;
49101;SDS011;34913;47.520;19.186;2023-04-15T01:33:00;12.55;;;9.18;;
49101;SDS011;34913;47.520;19.186;2023-04-15T01:35:25;13.50;;;9.15;;
49101;SDS011;34913;47.520;19.186;2023-04-15T01:37:52;14.00;;;9.50;;
49101;SDS011;34913;47.520;19.186;2023-04-15T01:40:19;11.75;;;9.23;;
49101;SDS011;34913;47.520;19.186;2023-04-15T01:42:45;13.50;;;9.82;;
49101;SDS011;34913;47.520;19.186;2023-04-15T01:45:11;12.95;;;9.45;;
49101;SDS011;34913;47.520;19.186;2023-04-15T01:47:38;13.15;;;9.38;;
49101;SDS011;34913;47.520;19.186;2023-04-15T01:50:03;12.60;;;8.95;;
49101;SDS011;34913;47.520;19.186;2023-04-15T01:52:29;13.07;;;9.43;;
49101;SDS011;34913;47.520;19.186;2023-04-15T01:54:56;11.07;;;8.57;;
49101;SDS011;34913;47.520;19.186;2023-04-15T01:57:21;12.32;;;9.32;;
49101;SDS011;34913;47.520;19.186;2023-04-15T01:59:47;10.57;;;8.55;;
49101;SDS011;34913;47.520;19.186;2023-04-15T02:02:12;13.07;;;9.40;;
49101;SDS011;34913;47.520;19.186;2023-04-15T02:04:38;13.95;;;9.27;;
49101;SDS011;34913;47.520;19.186;2023-04-15T02:07:03;12.90;;;9.77;;
49101;SDS011;34913;47.520;19.186;2023-04-15T02:09:28;12.82;;;9.65;;
49101;SDS011;34913;47.520;19.186;2023-04-15T02:11:54;13.88;;;9.80;;
49101;SDS011;34913;47.520;19.186;2023-04-15T02:14:20;13.25;;;10.27;;
49101;SDS011;34913;47.520;19.186;2023-04-15T02:16:45;14.32;;;10.23;;
49101;SDS011;34913;47.520;19.186;2023-04-15T02:19:10;13.55;;;10.30;;
49101;SDS011;34913;47.520;19.186;2023-04-15T02:21:36;13.35;;;10.07;;
49101;SDS011;34913;47.520;19.186;2023-04-15T02:24:02;13.85;;;10.60;;
49101;SDS011;34913;47.520;19.186;2023-04-15T02:26:28;14.35;;;10.20;;
49101;SDS011;34913;47.520;19.186;2023-04-15T02:28:56;15.27;;;9.57;;
49101;SDS011;34913;47.520;19.186;2023-04-15T02:31:22;10.40;;;7.80;;
49101;SDS011;34913;47.520;19.186;2023-04-15T02:33:47;13.40;;;10.05;;
49101;SDS011;34913;47.520;19.186;2023-04-15T02:36:13;12.23;;;8.45;;
49101;SDS011;34913;47.520;19.186;2023-04-15T02:38:38;15.70;;;8.73;;
49101;SDS011;34913;47.520;19.186;2023-04-15T02:41:10;10.57;;;7.72;;
49101;SDS011;34913;47.520;19.186;2023-04-15T02:43:35;7.22;;;5.82;;
49101;SDS011;34913;47.520;19.186;2023-04-15T02:46:02;7.00;;;5.65;;
49101;SDS011;34913;47.520;19.186;2023-04-15T02:48:27;8.07;;;5.68;;
49101;SDS011;34913;47.520;19.186;2023-04-15T02:50:53;7.65;;;5.07;;
49101;SDS011;34913;47.520;19.186;2023-04-15T02:53:34;6.40;;;4.47;;
49101;SDS011;34913;47.520;19.186;2023-04-15T02:56:00;6.32;;;5.13;;
49101;SDS011;34913;47.520;19.186;2023-04-15T02:58:25;6.85;;;5.40;;
49101;SDS011;34913;47.520;19.186;2023-04-15T03:00:51;8.13;;;5.70;;
49101;SDS011;34913;47.520;19.186;2023-04-15T03:03:16;8.90;;;6.25;;
49101;SDS011;34913;47.520;19.186;2023-04-15T03:05:42;7.93;;;5.68;;
49101;SDS011;34913;47.520;19.186;2023-04-15T03:08:08;7.97;;;6.38;;
49101;SDS011;34913;47.520;19.186;2023-04-15T03:10:33;8.95;;;6.20;;
49101;SDS011;34913;47.520;19.186;2023-04-15T03:12:59;6.88;;;5.78;;
49101;SDS011;34913;47.520;19.186;2023-04-15T03:15:25;7.85;;;5.88;;
49101;SDS011;34913;47.520;19.186;2023-04-15T03:17:51;6.95;;;5.50;;
49101;SDS011;34913;47.520;19.186;2023-04-15T03:20:16;7.20;;;5.75;;
49101;SDS011;34913;47.520;19.186;2023-04-15T03:22:42;9.43;;;7.15;;
49101;SDS011;34913;47.520;19.186;2023-04-15T03:25:07;8.93;;;7.05;;
49101;SDS011;34913;47.520;19.186;2023-04-15T03:27:33;11.68;;;8.32;;
49101;SDS011;34913;47.520;19.186;2023-04-15T03:29:58;12.05;;;8.82;;
49101;SDS011;34913;47.520;19.186;2023-04-15T03:32:24;14.00;;;8.20;;
49101;SDS011;34913;47.520;19.186;2023-04-15T03:34:49;11.73;;;8.57;;
49101;SDS011;34913;47.520;19.186;2023-04-15T03:37:15;11.02;;;8.77;;
49101;SDS011;34913;47.520;19.186;2023-04-15T03:39:40;11.90;;;8.68;;
49101;SDS011;34913;47.520;19.186;2023-04-15T03:42:06;13.23;;;8.88;;
49101;SDS011;34913;47.520;19.186;2023-04-15T03:44:31;11.43;;;9.02;;
49101;SDS011;34913;47.520;19.186;2023-04-15T03:46:57;13.15;;;9.35;;
49101;SDS011;34913;47.520;19.186;2023-04-15T03:49:22;13.00;;;9.82;;
49101;SDS011;34913;47.520;19.186;2023-04-15T03:51:48;16.30;;;9.93;;
49101;SDS011;34913;47.520;19.186;2023-04-15T03:54:13;17.38;;;10.73;;
49101;SDS011;34913;47.520;19.186;2023-04-15T03:56:39;15.63;;;9.95;;
49101;SDS011;34913;47.520;19.186;2023-04-15T03:59:05;14.52;;;10.52;;
49101;SDS011;34913;47.520;19.186;2023-04-15T04:01:31;14.95;;;10.63;;
49101;SDS011;34913;47.520;19.186;2023-04-15T04:03:56;16.17;;;10.90;;
49101;SDS011;34913;47.520;19.186;2023-04-15T04:06:22;13.45;;;10.25;;
49101;SDS011;34913;47.520;19.186;2023-04-15T04:08:47;16.35;;;10.57;;
49101;SDS011;34913;47.520;19.186;2023-04-15T04:11:13;16.95;;;10.88;;
49101;SDS011;34913;47.520;19.186;2023-04-15T04:13:38;16.88;;;11.10;;
49101;SDS011;34913;47.520;19.186;2023-04-15T04:16:04;17.23;;;11.10;;
49101;SDS011;34913;47.520;19.186;2023-04-15T04:18:30;15.25;;;10.52;;
49101;SDS011;34913;47.520;19.186;2023-04-15T04:20:56;16.50;;;10.85;;
49101;SDS011;34913;47.520;19.186;2023-04-15T04:23:22;15.95;;;11.20;;
49101;SDS011;34913;47.520;19.186;2023-04-15T04:25:47;12.93;;;9.18;;
49101;SDS011;34913;47.520;19.186;2023-04-15T04:28:13;10.25;;;7.15;;
49101;SDS011;34913;47.520;19.186;2023-04-15T04:30:38;10.02;;;7.00;;
49101;SDS011;34913;47.520;19.186;2023-04-15T04:33:04;10.30;;;7.30;;
49101;SDS011;34913;47.520;19.186;2023-04-15T04:35:30;8.77;;;7.03;;
49101;SDS011;34913;47.520;19.186;2023-04-15T04:37:58;8.07;;;6.38;;
49101;SDS011;34913;47.520;19.186;2023-04-15T04:40:25;8.23;;;6.38;;
49101;SDS011;34913;47.520;19.186;2023-04-15T04:42:51;9.15;;;6.70;;
49101;SDS011;34913;47.520;19.186;2023-04-15T04:45:17;7.85;;;6.13;;
49101;SDS011;34913;47.520;19.186;2023-04-15T04:47:43;8.80;;;7.25;;
49101;SDS011;34913;47.520;19.186;2023-04-15T04:50:10;9.38;;;7.57;;
49101;SDS011;34913;47.520;19.186;2023-04-15T04:52:36;10.45;;;8.10;;
49101;SDS011;34913;47.520;19.186;2023-04-15T04:55:02;10.15;;;7.60;;
49101;SDS011;34913;47.520;19.186;2023-04-15T04:57:28;10.65;;;7.65;;
49101;SDS011;34913;47.520;19.186;2023-04-15T04:59:53;8.38;;;6.82;;
49101;SDS011;34913;47.520;19.186;2023-04-15T05:02:18;8.23;;;6.07;;
49101;SDS011;34913;47.520;19.186;2023-04-15T05:04:44;7.18;;;6.20;;
49101;SDS011;34913;47.520;19.186;2023-04-15T05:07:10;8.00;;;5.22;;
49101;SDS011;34913;47.520;19.186;2023-04-15T05:09:35;7.40;;;5.55;;
49101;SDS011;34913;47.520;19.186;2023-04-15T05:12:01;7.65;;;5.40;;
49101;SDS011;34913;47.520;19.186;2023-04-15T05:14:28;6.78;;;5.30;;
49101;SDS011;34913;47.520;19.186;2023-04-15T05:16:53;6.93;;;4.97;;
49101;SDS011;34913;47.520;19.186;2023-04-15T05:19:18;7.15;;;5.57;;
49101;SDS011;34913;47.520;19.186;2023-04-15T05:21:44;8.43;;;5.55;;
49101;SDS011;34913;47.520;19.186;2023-04-15T05:24:09;7.10;;;5.38;;
49101;SDS011;34913;47.520;19.186;2023-04-15T05:26:35;7.20;;;5.45;;
49101;SDS011;34913;47.520;19.186;2023-04-15T05:29:01;6.35;;;5.57;;
49101;SDS011;34913;47.520;19.186;2023-04-15T05:31:26;6.85;;;5.65;;
49101;SDS011;34913;47.520;19.186;2023-04-15T05:33:52;6.63;;;5.38;;
49101;SDS011;34913;47.520;19.186;2023-04-15T05:36:17;7.35;;;5.32;;
49101;SDS011;34913;47.520;19.186;2023-04-15T05:38:43;6.72;;;5.47;;
49101;SDS011;34913;47.520;19.186;2023-04-15T05:41:08;5.80;;;5.15;;
49101;SDS011;34913;47.520;19.186;2023-04-15T05:43:34;5.60;;;4.97;;
49101;SDS011;34913;47.520;19.186;2023-04-15T05:45:59;6.28;;;5.00;;
49101;SDS011;34913;47.520;19.186;2023-04-15T05:48:25;6.22;;;5.25;;
49101;SDS011;34913;47.520;19.186;2023-04-15T05:50:50;6.20;;;5.10;;
49101;SDS011;34913;47.520;19.186;2023-04-15T05:53:15;6.95;;;5.32;;
49101;SDS011;34913;47.520;19.186;2023-04-15T05:55:41;7.70;;;5.18;;
49101;SDS011;34913;47.520;19.186;2023-04-15T05:58:06;5.40;;;4.75;;
49101;SDS011;34913;47.520;19.186;2023-04-15T06:00:32;7.68;;;4.97;;
49101;SDS011;34913;47.520;19.186;2023-04-15T06:02:57;6.40;;;5.70;;
49101;SDS011;34913;47.520;19.186;2023-04-15T06:05:23;6.25;;;5.53;;
49101;SDS011;34913;47.520;19.186;2023-04-15T06:07:49;7.63;;;5.78;;
49101;SDS011;34913;47.520;19.186;2023-04-15T06:10:14;8.85;;;5.85;;
49101;SDS011;34913;47.520;19.186;2023-04-15T06:12:40;9.05;;;5.72;;
49101;SDS011;34913;47.520;19.186;2023-04-15T06:15:05;7.68;;;6.13;;
49101;SDS011;34913;47.520;19.186;2023-04-15T06:17:33;8.15;;;5.85;;
49101;SDS011;34913;47.520;19.186;2023-04-15T06:19:59;6.40;;;5.43;;
49101;SDS011;34913;47.520;19.186;2023-04-15T06:22:24;5.90;;;5.30;;
49101;SDS011;34913;47.520;19.186;2023-04-15T06:24:50;6.38;;;5.45;;
49101;SDS011;34913;47.520;19.186;2023-04-15T06:27:16;6.55;;;5.38;;
49101;SDS011;34913;47.520;19.186;2023-04-15T06:29:41;6.30;;;5.53;;
49101;SDS011;34913;47.520;19.186;2023-04-15T06:32:07;6.88;;;5.93;;
49101;SDS011;34913;47.520;19.186;2023-04-15T06:34:32;6.25;;;5.38;;
49101;SDS011;34913;47.520;19.186;2023-04-15T06:36:58;6.45;;;5.43;;
49101;SDS011;34913;47.520;19.186;2023-04-15T06:39:24;6.22;;;4.75;;
49101;SDS011;34913;47.520;19.186;2023-04-15T06:41:50;7.55;;;5.18;;
49101;SDS011;34913;47.520;19.186;2023-04-15T06:44:16;5.20;;;4.68;;
49101;SDS011;34913;47.520;19.186;2023-04-15T06:46:42;6.45;;;5.13;;
49101;SDS011;34913;47.520;19.186;2023-04-15T06:49:08;5.75;;;4.97;;
49101;SDS011;34913;47.520;19.186;2023-04-15T06:51:34;6.15;;;4.63;;
49101;SDS011;34913;47.520;19.186;2023-04-15T06:54:00;5.70;;;5.10;;
49101;SDS011;34913;47.520;19.186;2023-04-15T06:56:26;6.53;;;4.97;;
49101;SDS011;34913;47.520;19.186;2023-04-15T06:58:52;5.18;;;4.45;;
49101;SDS011;34913;47.520;19.186;2023-04-15T07:01:17;5.38;;;4.60;;
49101;SDS011;34913;47.520;19.186;2023-04-15T07:03:43;5.28;;;4.78;;
49101;SDS011;34913;47.520;19.186;2023-04-15T07:06:09;4.82;;;4.22;;
49101;SDS011;34913;47.520;19.186;2023-04-15T07:08:34;5.63;;;4.32;;
49101;SDS011;34913;47.520;19.186;2023-04-15T07:11:00;5.00;;;4.10;;
49101;SDS011;34913;47.520;19.186;2023-04-15T07:13:25;5.88;;;4.28;;
49101;SDS011;34913;47.520;19.186;2023-04-15T07:15:51;4.68;;;4.03;;
49101;SDS011;34913;47.520;19.186;2023-04-15T07:18:17;4.97;;;3.85;;
49101;SDS011;34913;47.520;19.186;2023-04-15T07:20:42;4.05;;;3.65;;
49101;SDS011;34913;47.520;19.186;2023-04-15T07:23:08;4.40;;;3.88;;
49101;SDS011;34913;47.520;19.186;2023-04-15T07:25:33;4.03;;;3.40;;
49101;SDS011;34913;47.520;19.186;2023-04-15T07:27:59;3.45;;;2.78;;
49101;SDS011;34913;47.520;19.186;2023-04-15T07:30:24;4.53;;;3.13;;
49101;SDS011;34913;47.520;19.186;2023-04-15T07:32:50;5.32;;;3.08;;
49101;SDS011;34913;47.520;19.186;2023-04-15T07:35:15;3.30;;;2.90;;
49101;SDS011;34913;47.520;19.186;2023-04-15T07:37:41;3.40;;;2.90;;
49101;SDS011;34913;47.520;19.186;2023-04-15T07:40:08;2.60;;;2.22;;
49101;SDS011;34913;47.520;19.186;2023-04-15T07:42:35;2.90;;;2.55;;
49101;SDS011;34913;47.520;19.186;2023-04-15T07:45:00;2.92;;;2.28;;
49101;SDS011;34913;47.520;19.186;2023-04-15T07:47:26;2.65;;;2.00;;
49101;SDS011;34913;47.520;19.186;2023-04-15T07:49:51;3.45;;;2.50;;
49101;SDS011;34913;47.520;19.186;2023-04-15T07:52:17;2.38;;;2.13;;
49101;SDS011;34913;47.520;19.186;2023-04-15T07:54:43;2.70;;;2.00;;
49101;SDS011;34913;47.520;19.186;2023-04-15T07:57:09;2.20;;;1.98;;
49101;SDS011;34913;47.520;19.186;2023-04-15T07:59:35;2.53;;;1.90;;
49101;SDS011;34913;47.520;19.186;2023-04-15T08:02:01;1.80;;;1.70;;
49101;SDS011;34913;47.520;19.186;2023-04-15T08:04:26;2.97;;;1.98;;
49101;SDS011;34913;47.520;19.186;2023-04-15T08:06:52;2.05;;;1.75;;
49101;SDS011;34913;47.520;19.186;2023-04-15T08:09:17;2.15;;;1.50;;
49101;SDS011;34913;47.520;19.186;2023-04-15T08:11:43;2.15;;;1.70;;
49101;SDS011;34913;47.520;19.186;2023-04-15T08:14:09;1.63;;;1.52;;
49101;SDS011;34913;47.520;19.186;2023-04-15T08:16:35;1.60;;;1.50;;
49101;SDS011;34913;47.520;19.186;2023-04-15T08:19:01;1.75;;;1.50;;
49101;SDS011;34913;47.520;19.186;2023-04-15T08:21:26;1.50;;;1.30;;
49101;SDS011;34913;47.520;19.186;2023-04-15T08:23:54;1.58;;;1.45;;
49101;SDS011;34913;47.520;19.186;2023-04-15T08:26:20;3.38;;;1.50;;
49101;SDS011;34913;47.520;19.186;2023-04-15T08:28:46;1.27;;;1.17;;
49101;SDS011;34913;47.520;19.186;2023-04-15T08:31:15;1.10;;;1.00;;
49101;SDS011;34913;47.520;19.186;2023-04-15T08:33:42;1.65;;;1.30;;
49101;SDS011;34913;47.520;19.186;2023-04-15T08:36:07;2.00;;;1.17;;
49101;SDS011;34913;47.520;19.186;2023-04-15T08:38:33;1.90;;;1.50;;
49101;SDS011;34913;47.520;19.186;2023-04-15T08:40:59;1.45;;;1.30;;
49101;SDS011;34913;47.520;19.186;2023-04-15T08:43:34;1.65;;;1.40;;
49101;SDS011;34913;47.520;19.186;2023-04-15T08:46:11;1.52;;;1.20;;
49101;SDS011;34913;47.520;19.186;2023-04-15T08:48:37;1.48;;;1.13;;
49101;SDS011;34913;47.520;19.186;2023-04-15T08:51:05;1.08;;;0.93;;
49101;SDS011;34913;47.520;19.186;2023-04-15T08:53:31;1.10;;;1.00;;
49101;SDS011;34913;47.520;19.186;2023-04-15T08:55:57;1.10;;;1.00;;
49101;SDS011;34913;47.520;19.186;2023-04-15T08:58:28;2.65;;;1.05;;
49101;SDS011;34913;47.520;19.186;2023-04-15T09:00:55;0.88;;;0.88;;
49101;SDS011;34913;47.520;19.186;2023-04-15T09:03:21;0.93;;;0.80;;
49101;SDS011;34913;47.520;19.186;2023-04-15T09:05:47;0.80;;;0.80;;
49101;SDS011;34913;47.520;19.186;2023-04-15T09:08:14;1.17;;;1.08;;
49101;SDS011;34913;47.520;19.186;2023-04-15T09:10:40;1.20;;;1.10;;
49101;SDS011;34913;47.520;19.186;2023-04-15T09:13:05;1.38;;;1.10;;
49101;SDS011;34913;47.520;19.186;2023-04-15T09:15:31;1.60;;;1.10;;
49101;SDS011;34913;47.520;19.186;2023-04-15T09:17:57;1.40;;;0.88;;
49101;SDS011;34913;47.520;19.186;2023-04-15T09:20:23;3.75;;;1.10;;
49101;SDS011;34913;47.520;19.186;2023-04-15T09:22:48;1.40;;;1.30;;
49101;SDS011;34913;47.520;19.186;2023-04-15T09:27:57;1.20;;;0.97;;
49101;SDS011;34913;47.520;19.186;2023-04-15T09:30:26;1.40;;;1.17;;
49101;SDS011;34913;47.520;19.186;2023-04-15T09:32:59;1.40;;;1.00;;
49101;SDS011;34913;47.520;19.186;2023-04-15T09:35:26;1.23;;;0.80;;
49101;SDS011;34913;47.520;19.186;2023-04-15T09:37:52;1.27;;;1.00;;
49101;SDS011;34913;47.520;19.186;2023-04-15T09:40:44;0.93;;;0.75;;
49101;SDS011;34913;47.520;19.186;2023-04-15T09:43:10;0.73;;;0.73;;
49101;SDS011;34913;47.520;19.186;2023-04-15T09:45:38;0.80;;;0.75;;
49101;SDS011;34913;47.520;19.186;2023-04-15T09:48:21;0.85;;;0.70;;
49101;SDS011;34913;47.520;19.186;2023-04-15T09:50:51;0.70;;;0.70;;
49101;SDS011;34913;47.520;19.186;2023-04-15T09:53:21;0.57;;;0.57;;
49101;SDS011;34913;47.520;19.186;2023-04-15T09:58:26;0.63;;;0.60;;
49101;SDS011;34913;47.520;19.186;2023-04-15T10:00:56;0.52;;;0.50;;
49101;SDS011;34913;47.520;19.186;2023-04-15T10:05:52;0.50;;;0.50;;
49101;SDS011;34913;47.520;19.186;2023-04-15T10:08:21;0.50;;;0.50;;
49101;SDS011;34913;47.520;19.186;2023-04-15T10:10:48;0.98;;;0.70;;
49101;SDS011;34913;47.520;19.186;2023-04-15T10:13:15;0.70;;;0.70;;
49101;SDS011;34913;47.520;19.186;2023-04-15T10:15:43;0.80;;;0.80;;
49101;SDS011;34913;47.520;19.186;2023-04-15T10:18:14;0.70;;;0.60;;
49101;SDS011;34913;47.520;19.186;2023-04-15T10:20:43;1.48;;;0.60;;
49101;SDS011;34913;47.520;19.186;2023-04-15T10:23:10;0.70;;;0.70;;
49101;SDS011;34913;47.520;19.186;2023-04-15T10:25:37;1.15;;;0.63;;
49101;SDS011;34913;47.520;19.186;2023-04-15T10:28:03;0.80;;;0.60;;
49101;SDS011;34913;47.520;19.186;2023-04-15T10:30:31;0.50;;;0.50;;
49101;SDS011;34913;47.520;19.186;2023-04-15T10:32:57;0.68;;;0.50;;
49101;SDS011;34913;47.520;19.186;2023-04-15T10:35:24;0.95;;;0.85;;
49101;SDS011;34913;47.520;19.186;2023-04-15T10:37:50;0.85;;;0.85;;
49101;SDS011;34913;47.520;19.186;2023-04-15T10:40:28;1.73;;;1.52;;
49101;SDS011;34913;47.520;19.186;2023-04-15T10:42:56;4.40;;;2.30;;
49101;SDS011;34913;47.520;19.186;2023-04-15T10:45:26;2.10;;;1.80;;
49101;SDS011;34913;47.520;19.186;2023-04-15T10:47:57;2.88;;;2.10;;
49101;SDS011;34913;47.520;19.186;2023-04-15T10:52:51;2.60;;;1.85;;
49101;SDS011;34913;47.520;19.186;2023-04-15T10:55:21;3.33;;;1.85;;
49101;SDS011;34913;47.520;19.186;2023-04-15T10:57:53;1.27;;;1.02;;
49101;SDS011;34913;47.520;19.186;2023-04-15T11:00:26;0.95;;;0.80;;
49101;SDS011;34913;47.520;19.186;2023-04-15T11:02:54;0.80;;;0.80;;
49101;SDS011;34913;47.520;19.186;2023-04-15T11:08:03;0.90;;;0.80;;
49101;SDS011;34913;47.520;19.186;2023-04-15T11:20:41;0.60;;;0.60;;
49101;SDS011;34913;47.520;19.186;2023-04-15T11:23:09;0.70;;;0.70;;
49101;SDS011;34913;47.520;19.186;2023-04-15T11:25:35;1.00;;;0.80;;
49101;SDS011;34913;47.520;19.186;2023-04-15T11:28:04;1.23;;;0.80;;
49101;SDS011;34913;47.520;19.186;2023-04-15T11:30:31;0.57;;;0.50;;
49101;SDS011;34913;47.520;19.186;2023-04-15T11:33:10;0.75;;;0.60;;
49101;SDS011;34913;47.520;19.186;2023-04-15T11:35:36;0.50;;;0.50;;
49101;SDS011;34913;47.520;19.186;2023-04-15T11:38:12;0.68;;;0.68;;
49101;SDS011;34913;47.520;19.186;2023-04-15T11:40:38;1.00;;;0.90;;
49101;SDS011;34913;47.520;19.186;2023-04-15T11:43:10;2.78;;;1.55;;
49101;SDS011;34913;47.520;19.186;2023-04-15T11:48:27;1.00;;;0.90;;
49101;SDS011;34913;47.520;19.186;2023-04-15T11:50:57;0.80;;;0.70;;
49101;SDS011;34913;47.520;19.186;2023-04-15T11:56:08;1.13;;;0.75;;
49101;SDS011;34913;47.520;19.186;2023-04-15T11:58:40;0.75;;;0.70;;
49101;SDS011;34913;47.520;19.186;2023-04-15T12:01:07;0.55;;;0.55;;
49101;SDS011;34913;47.520;19.186;2023-04-15T12:14:09;1.63;;;0.60;;
49101;SDS011;34913;47.520;19.186;2023-04-15T12:17:18;0.50;;;0.50;;
49101;SDS011;34913;47.520;19.186;2023-04-15T12:19:44;0.88;;;0.70;;
49101;SDS011;34913;47.520;19.186;2023-04-15T12:22:14;2.08;;;0.60;;
49101;SDS011;34913;47.520;19.186;2023-04-15T12:24:42;0.60;;;0.60;;
49101;SDS011;34913;47.520;19.186;2023-04-15T12:27:11;0.70;;;0.57;;
49101;SDS011;34913;47.520;19.186;2023-04-15T12:29:38;0.60;;;0.60;;
49101;SDS011;34913;47.520;19.186;2023-04-15T12:32:08;0.57;;;0.57;;
49101;SDS011;34913;47.520;19.186;2023-04-15T12:34:48;0.60;;;0.50;;
49101;SDS011;34913;47.520;19.186;2023-04-15T12:37:15;0.70;;;0.70;;
49101;SDS011;34913;47.520;19.186;2023-04-15T12:39:42;1.88;;;0.88;;
49101;SDS011;34913;47.520;19.186;2023-04-15T12:42:09;1.80;;;0.90;;
49101;SDS011;34913;47.520;19.186;2023-04-15T12:44:35;1.73;;;1.60;;
49101;SDS011;34913;47.520;19.186;2023-04-15T12:47:02;1.98;;;1.40;;
49101;SDS011;34913;47.520;19.186;2023-04-15T12:49:27;2.97;;;1.73;;
49101;SDS011;34913;47.520;19.186;2023-04-15T12:51:54;2.38;;;2.17;;
49101;SDS011;34913;47.520;19.186;2023-04-15T12:54:20;2.80;;;2.30;;
49101;SDS011;34913;47.520;19.186;2023-04-15T12:56:46;2.10;;;1.90;;
49101;SDS011;34913;47.520;19.186;2023-04-15T12:59:13;2.47;;;2.00;;
49101;SDS011;34913;47.520;19.186;2023-04-15T13:01:40;2.30;;;1.80;;
49101;SDS011;34913;47.520;19.186;2023-04-15T13:04:05;2.40;;;1.42;;
49101;SDS011;34913;47.520;19.186;2023-04-15T13:06:31;1.77;;;1.52;;
49101;SDS011;34913;47.520;19.186;2023-04-15T13:09:00;2.00;;;1.80;;
49101;SDS011;34913;47.520;19.186;2023-04-15T13:11:26;1.50;;;1.40;;
49101;SDS011;34913;47.520;19.186;2023-04-15T13:13:55;1.48;;;1.35;;
49101;SDS011;34913;47.520;19.186;2023-04-15T13:16:21;2.45;;;1.65;;
49101;SDS011;34913;47.520;19.186;2023-04-15T13:18:47;2.30;;;1.50;;
49101;SDS011;34913;47.520;19.186;2023-04-15T13:21:13;1.50;;;1.40;;
49101;SDS011;34913;47.520;19.186;2023-04-15T13:23:40;1.77;;;1.55;;
49101;SDS011;34913;47.520;19.186;2023-04-15T13:26:06;3.17;;;1.60;;
49101;SDS011;34913;47.520;19.186;2023-04-15T13:28:32;3.70;;;1.77;;
49101;SDS011;34913;47.520;19.186;2023-04-15T13:30:57;2.25;;;1.73;;
49101;SDS011;34913;47.520;19.186;2023-04-15T13:33:24;2.65;;;1.90;;
49101;SDS011;34913;47.520;19.186;2023-04-15T13:35:49;2.05;;;1.77;;
49101;SDS011;34913;47.520;19.186;2023-04-15T13:38:15;2.65;;;1.80;;
49101;SDS011;34913;47.520;19.186;2023-04-15T13:40:40;2.25;;;1.70;;
49101;SDS011;34913;47.520;19.186;2023-04-15T13:43:06;3.53;;;1.92;;
49101;SDS011;34913;47.520;19.186;2023-04-15T13:45:31;2.42;;;1.80;;
49101;SDS011;34913;47.520;19.186;2023-04-15T13:47:57;2.25;;;2.00;;
49101;SDS011;34913;47.520;19.186;2023-04-15T13:50:22;2.00;;;1.60;;
49101;SDS011;34913;47.520;19.186;2023-04-15T13:52:48;2.53;;;1.90;;
49101;SDS011;34913;47.520;19.186;2023-04-15T13:55:13;1.40;;;1.30;;
49101;SDS011;34913;47.520;19.186;2023-04-15T13:57:39;2.42;;;1.70;;
49101;SDS011;34913;47.520;19.186;2023-04-15T14:00:05;1.80;;;1.55;;
49101;SDS011;34913;47.520;19.186;2023-04-15T14:02:35;1.52;;;1.40;;
49101;SDS011;34913;47.520;19.186;2023-04-15T14:05:00;2.03;;;1.83;;
49101;SDS011;34913;47.520;19.186;2023-04-15T14:07:27;2.95;;;1.70;;
49101;SDS011;34913;47.520;19.186;2023-04-15T14:09:54;1.90;;;1.60;;
49101;SDS011;34913;47.520;19.186;2023-04-15T14:12:19;1.85;;;1.67;;
49101;SDS011;34913;47.520;19.186;2023-04-15T14:14:45;3.35;;;2.03;;
49101;SDS011;34913;47.520;19.186;2023-04-15T14:17:10;2.83;;;2.25;;
49101;SDS011;34913;47.520;19.186;2023-04-15T14:19:35;3.00;;;2.28;;
49101;SDS011;34913;47.520;19.186;2023-04-15T14:22:01;2.47;;;2.00;;
49101;SDS011;34913;47.520;19.186;2023-04-15T14:24:27;2.60;;;2.05;;
49101;SDS011;34913;47.520;19.186;2023-04-15T14:26:52;3.13;;;2.17;;
49101;SDS011;34913;47.520;19.186;2023-04-15T14:29:18;2.78;;;2.33;;
49101;SDS011;34913;47.520;19.186;2023-04-15T14:31:44;3.55;;;2.55;;
49101;SDS011;34913;47.520;19.186;2023-04-15T14:34:10;3.33;;;2.50;;
49101;SDS011;34913;47.520;19.186;2023-04-15T14:36:35;3.30;;;2.70;;
49101;SDS011;34913;47.520;19.186;2023-04-15T14:39:02;2.83;;;2.42;;
49101;SDS011;34913;47.520;19.186;2023-04-15T14:41:28;3.47;;;2.65;;
49101;SDS011;34913;47.520;19.186;2023-04-15T14:43:53;4.15;;;2.30;;
49101;SDS011;34913;47.520;19.186;2023-04-15T14:46:19;2.65;;;2.17;;
49101;SDS011;34913;47.520;19.186;2023-04-15T14:48:45;3.70;;;2.00;;
49101;SDS011;34913;47.520;19.186;2023-04-15T14:51:10;2.35;;;1.75;;
49101;SDS011;34913;47.520;19.186;2023-04-15T14:53:36;1.90;;;1.63;;
49101;SDS011;34913;47.520;19.186;2023-04-15T14:56:01;2.63;;;1.50;;
49101;SDS011;34913;47.520;19.186;2023-04-15T14:58:27;2.28;;;1.40;;
49101;SDS011;34913;47.520;19.186;2023-04-15T15:00:52;2.30;;;1.77;;
49101;SDS011;34913;47.520;19.186;2023-04-15T15:03:17;2.33;;;2.00;;
49101;SDS011;34913;47.520;19.186;2023-04-15T15:05:44;1.90;;;1.63;;